Pacific Dawn — 3ECJ9 — position and weather

sailwx.info

Track history (hours):
 
Tides and Currents Weather Stations Pressure Air Temp Water Temp Dewpoint Dewpoint Depression Visibility Wind Speed Wind Dir Waves Ship Positions

Pacific Dawn

Last reported at 2015-Jul-29 13:18 UTC. Time now 2015-Aug-04 21:55 UTC.
Position N 36°05' W 134°54'.

Length 239 m; draft 13.5 m.

Type: Tanker. MMSI: 371361000.

Date/timePositionNaut miles runAvg speedWind from/ knotsBaromVisibWave heightAir tempDewpointWater temp
2015-Jul-29 13:18N 36°05' W 134°54'26112.6
2015-Jul-28 16:33N 34°06' W 130°10'1312.9
2015-Jul-28 15:31N 34°00' W 129°55'3012.9
2015-Jul-28 13:13N 33°47' W 129°24'3713.0
2015-Jul-28 10:24N 33°30' W 128°44'1113.0
2015-Jul-28 09:33N 33°25' W 128°33'1312.8
2015-Jul-28 08:33N 33°19' W 128°19'1312.8
2015-Jul-28 07:33N 33°12' W 128°06'1313.0
2015-Jul-28 06:33N 33°07' W 127°52'1513.0
2015-Jul-28 05:24N 33°00' W 127°36'30012.6
2015-Jul-27 05:33N 30°43' W 122°22'1512.5
2015-Jul-27 04:23N 30°37' W 122°06'3712.0
2015-Jul-27 01:16N 30°34' W 121°23'6012.1
2015-Jul-26 20:21N 30°48' W 120°15'1012.6
2015-Jul-26 19:34N 30°55' W 120°08'1312.9
2015-Jul-26 18:33N 31°05' W 119°58'1312.8
2015-Jul-26 17:34N 31°15' W 119°48'1312.6
2015-Jul-26 16:33N 31°24' W 119°38'1312.6
2015-Jul-26 15:34N 31°35' W 119°30'1212.3
2015-Jul-26 14:34N 31°43' W 119°20'5 4.6
2015-Jul-26 13:34N 31°47' W 119°17'3 3.1
2015-Jul-26 12:34N 31°49' W 119°20'1 0.7
2015-Jul-26 11:33N 31°50' W 119°20'3 3.2
2015-Jul-26 10:33N 31°52' W 119°21'2 2.1
2015-Jul-26 09:33N 31°54' W 119°23'1 1.3
2015-Jul-26 08:34N 31°55' W 119°24'1 1.3
2015-Jul-26 07:33N 31°56' W 119°25'1 1.3
2015-Jul-26 06:34N 31°57' W 119°26'1 1.3
2015-Jul-26 05:34N 31°58' W 119°27'1 1.2
2015-Jul-26 04:34N 31°59' W 119°28'1 1.2
2015-Jul-26 03:34N 31°60' W 119°29'1 1.1
2015-Jul-26 02:34N 32°01' W 119°30'1 1.1
2015-Jul-26 01:34N 32°01' W 119°31'1 1.2
2015-Jul-26 00:34N 32°02' W 119°32'1 1.2
2015-Jul-25 23:34N 32°03' W 119°33'1 1.3
2015-Jul-25 22:34N 32°04' W 119°34'1 1.3
2015-Jul-25 21:34N 32°04' W 119°35'1 1.1
2015-Jul-25 20:34N 32°05' W 119°37'1 1.0
2015-Jul-25 19:34N 32°05' W 119°37'1 1.0
2015-Jul-25 18:34N 32°06' W 119°38'1 1.0
2015-Jul-25 17:34N 32°07' W 119°39'1 0.9
2015-Jul-25 16:34N 32°08' W 119°40'1 1.1
2015-Jul-25 15:34N 32°08' W 119°40'1 1.2
2015-Jul-25 14:34N 32°09' W 119°41'2 2.1
2015-Jul-25 13:34N 32°11' W 119°43'5 5.0
2015-Jul-25 12:33N 32°14' W 119°48'3 3.1
2015-Jul-25 11:34N 32°16' W 119°51'5 5.3
2015-Jul-25 10:34N 32°21' W 119°51'4 3.7
2015-Jul-25 09:34N 32°19' W 119°55'4 4.1
2015-Jul-25 08:34N 32°15' W 119°53'3 2.9
2015-Jul-25 07:34N 32°13' W 119°51'3 3.2
2015-Jul-25 06:34N 32°16' W 119°53'9 9.2
2015-Jul-25 05:34N 32°20' W 120°02'1413.6
2015-Jul-25 04:33N 32°27' W 120°16'1514.9
2015-Jul-25 03:33N 32°35' W 120°31'1514.8
2015-Jul-25 02:33N 32°42' W 120°46'1515.1
2015-Jul-25 01:33N 32°49' W 121°02'1515.5
2015-Jul-25 00:33N 32°57' W 121°18'1515.2
2015-Jul-24 23:33N 33°06' W 121°33'1514.6
2015-Jul-24 22:33N 33°16' W 121°45'1515.1
2015-Jul-24 21:33N 33°31' W 121°49'1515.4
2015-Jul-24 20:34N 33°46' W 121°52'1515.3
2015-Jul-24 19:33N 34°01' W 121°56'1514.6
2015-Jul-24 18:33N 34°15' W 122°01'1514.9
2015-Jul-24 17:33N 34°30' W 122°04'1514.9
2015-Jul-24 16:33N 34°44' W 122°07'1514.7
2015-Jul-24 15:33N 34°59' W 122°11'1514.8
2015-Jul-24 14:33N 35°13' W 122°15'1515.0
2015-Jul-24 13:34N 35°28' W 122°18'1515.0
2015-Jul-24 12:33N 35°43' W 122°23'1514.9
2015-Jul-24 11:33N 35°57' W 122°26'1514.9
2015-Jul-24 10:33N 36°12' W 122°30'1414.4
2015-Jul-24 09:33N 36°25' W 122°36'1414.4
2015-Jul-24 08:33N 36°38' W 122°43'1414.2
2015-Jul-24 07:33N 36°51' W 122°51'1414.3
2015-Jul-24 06:33N 37°04' W 122°58'1514.7
2015-Jul-24 05:33N 37°18' W 123°06'1413.9
2015-Jul-24 04:34N 37°31' W 123°10'1514.6
2015-Jul-24 03:34N 37°39' W 122°54'1313.0
2015-Jul-24 02:33N 37°45' W 122°40'1110.7
2015-Jul-24 01:33N 37°50' W 122°27'10 9.6
2015-Jul-24 00:33N 37°43' W 122°20'0 0.3
2015-Jul-23 23:32N 37°42' W 122°20'0 0.1
2015-Jul-23 22:33N 37°42' W 122°20'0 0.0
2015-Jul-23 21:33N 37°42' W 122°20'4 3.7
2015-Jul-23 20:33N 37°46' W 122°22'1313.2
2015-Jul-23 19:33N 37°58' W 122°26'1312.9
2015-Jul-23 18:33N 38°03' W 122°11'2 0.1
2015-Jul-21 23:33N 38°02' W 122°09'8 8.3
2015-Jul-21 22:33N 38°03' W 122°19'10 9.8
2015-Jul-21 21:33N 37°55' W 122°27'1010.1
2015-Jul-21 20:33N 37°46' W 122°22'3 3.0
2015-Jul-21 19:31N 37°43' W 122°20'0 0.1
2015-Jul-21 18:34N 37°43' W 122°20'0 0.1
2015-Jul-21 17:31N 37°43' W 122°20'0 0.1
2015-Jul-21 16:31N 37°43' W 122°21'0 0.0
2015-Jul-21 15:31N 37°43' W 122°21'0 0.0
2015-Jul-21 14:34N 37°43' W 122°21'0 0.0
2015-Jul-21 13:34N 37°43' W 122°21'0 0.0
2015-Jul-21 12:31N 37°43' W 122°21'0 0.1
2015-Jul-21 11:34N 37°43' W 122°20'0 0.2
2015-Jul-21 10:34N 37°43' W 122°20'0 0.0
2015-Jul-21 09:31N 37°43' W 122°20'0 0.0
2015-Jul-21 08:34N 37°43' W 122°20'0 0.0
2015-Jul-21 07:31N 37°43' W 122°20'0 0.0
2015-Jul-21 06:31N 37°43' W 122°20'0 0.2
2015-Jul-21 05:31N 37°43' W 122°20'0 0.1
2015-Jul-21 04:31N 37°43' W 122°21'0 0.0
2015-Jul-21 03:31N 37°43' W 122°21'0 0.0
2015-Jul-21 02:31N 37°43' W 122°21'0 0.1
2015-Jul-21 01:33N 37°43' W 122°21'7 6.7
2015-Jul-21 00:34N 37°49' W 122°25'1110.7
2015-Jul-20 23:33N 37°46' W 122°38'9 8.9
2015-Jul-20 22:33N 37°40' W 122°47'1313.0
2015-Jul-20 21:33N 37°33' W 123°01'1110.8
2015-Jul-20 20:33N 37°22' W 123°02'1312.9
2015-Jul-20 19:33N 37°11' W 122°55'1212.3
2015-Jul-20 18:34N 36°60' W 122°49'1212.3
2015-Jul-20 17:33N 36°48' W 122°43'1312.5
2015-Jul-20 16:33N 36°37' W 122°37'  
Track history (hours):
 
Tides and Currents Weather Stations Pressure Air Temp Water Temp Dewpoint Dewpoint Depression Visibility Wind Speed Wind Dir Waves Ship Positions

Pacific Dawn

Last reported at 2015-Jul-29 13:18 UTC. Time now 2015-Aug-04 21:55 UTC.
Position N 36°05' W 134°54'.

Length 239 m; draft 13.5 m.

Type: Tanker. MMSI: 371361000.

Date/timePositionNaut miles runAvg speedWind from/ knotsBaromVisibWave heightAir tempDewpointWater temp
2015-Jul-29 13:18N 36°05' W 134°54'26112.6
2015-Jul-28 16:33N 34°06' W 130°10'1312.9
2015-Jul-28 15:31N 34°00' W 129°55'3012.9
2015-Jul-28 13:13N 33°47' W 129°24'3713.0
2015-Jul-28 10:24N 33°30' W 128°44'1113.0
2015-Jul-28 09:33N 33°25' W 128°33'1312.8
2015-Jul-28 08:33N 33°19' W 128°19'1312.8
2015-Jul-28 07:33N 33°12' W 128°06'1313.0
2015-Jul-28 06:33N 33°07' W 127°52'1513.0
2015-Jul-28 05:24N 33°00' W 127°36'30012.6
2015-Jul-27 05:33N 30°43' W 122°22'1512.5
2015-Jul-27 04:23N 30°37' W 122°06'3712.0
2015-Jul-27 01:16N 30°34' W 121°23'6012.1
2015-Jul-26 20:21N 30°48' W 120°15'1012.6
2015-Jul-26 19:34N 30°55' W 120°08'1312.9
2015-Jul-26 18:33N 31°05' W 119°58'1312.8
2015-Jul-26 17:34N 31°15' W 119°48'1312.6
2015-Jul-26 16:33N 31°24' W 119°38'1312.6
2015-Jul-26 15:34N 31°35' W 119°30'1212.3
2015-Jul-26 14:34N 31°43' W 119°20'5 4.6
2015-Jul-26 13:34N 31°47' W 119°17'3 3.1
2015-Jul-26 12:34N 31°49' W 119°20'1 0.7
2015-Jul-26 11:33N 31°50' W 119°20'3 3.2
2015-Jul-26 10:33N 31°52' W 119°21'2 2.1
2015-Jul-26 09:33N 31°54' W 119°23'1 1.3
2015-Jul-26 08:34N 31°55' W 119°24'1 1.3
2015-Jul-26 07:33N 31°56' W 119°25'1 1.3
2015-Jul-26 06:34N 31°57' W 119°26'1 1.3
2015-Jul-26 05:34N 31°58' W 119°27'1 1.2
2015-Jul-26 04:34N 31°59' W 119°28'1 1.2
2015-Jul-26 03:34N 31°60' W 119°29'1 1.1
2015-Jul-26 02:34N 32°01' W 119°30'1 1.1
2015-Jul-26 01:34N 32°01' W 119°31'1 1.2
2015-Jul-26 00:34N 32°02' W 119°32'1 1.2
2015-Jul-25 23:34N 32°03' W 119°33'1 1.3
2015-Jul-25 22:34N 32°04' W 119°34'1 1.3
2015-Jul-25 21:34N 32°04' W 119°35'1 1.1
2015-Jul-25 20:34N 32°05' W 119°37'1 1.0
2015-Jul-25 19:34N 32°05' W 119°37'1 1.0
2015-Jul-25 18:34N 32°06' W 119°38'1 1.0
2015-Jul-25 17:34N 32°07' W 119°39'1 0.9
2015-Jul-25 16:34N 32°08' W 119°40'1 1.1
2015-Jul-25 15:34N 32°08' W 119°40'1 1.2
2015-Jul-25 14:34N 32°09' W 119°41'2 2.1
2015-Jul-25 13:34N 32°11' W 119°43'5 5.0
2015-Jul-25 12:33N 32°14' W 119°48'3 3.1
2015-Jul-25 11:34N 32°16' W 119°51'5 5.3
2015-Jul-25 10:34N 32°21' W 119°51'4 3.7
2015-Jul-25 09:34N 32°19' W 119°55'4 4.1
2015-Jul-25 08:34N 32°15' W 119°53'3 2.9
2015-Jul-25 07:34N 32°13' W 119°51'3 3.2
2015-Jul-25 06:34N 32°16' W 119°53'9 9.2
2015-Jul-25 05:34N 32°20' W 120°02'1413.6
2015-Jul-25 04:33N 32°27' W 120°16'1514.9
2015-Jul-25 03:33N 32°35' W 120°31'1514.8
2015-Jul-25 02:33N 32°42' W 120°46'1515.1
2015-Jul-25 01:33N 32°49' W 121°02'1515.5
2015-Jul-25 00:33N 32°57' W 121°18'1515.2
2015-Jul-24 23:33N 33°06' W 121°33'1514.6
2015-Jul-24 22:33N 33°16' W 121°45'1515.1
2015-Jul-24 21:33N 33°31' W 121°49'1515.4
2015-Jul-24 20:34N 33°46' W 121°52'1515.3
2015-Jul-24 19:33N 34°01' W 121°56'1514.6
2015-Jul-24 18:33N 34°15' W 122°01'1514.9
2015-Jul-24 17:33N 34°30' W 122°04'1514.9
2015-Jul-24 16:33N 34°44' W 122°07'1514.7
2015-Jul-24 15:33N 34°59' W 122°11'1514.8
2015-Jul-24 14:33N 35°13' W 122°15'1515.0
2015-Jul-24 13:34N 35°28' W 122°18'1515.0
2015-Jul-24 12:33N 35°43' W 122°23'1514.9
2015-Jul-24 11:33N 35°57' W 122°26'1514.9
2015-Jul-24 10:33N 36°12' W 122°30'1414.4
2015-Jul-24 09:33N 36°25' W 122°36'1414.4
2015-Jul-24 08:33N 36°38' W 122°43'1414.2
2015-Jul-24 07:33N 36°51' W 122°51'1414.3
2015-Jul-24 06:33N 37°04' W 122°58'1514.7
2015-Jul-24 05:33N 37°18' W 123°06'1413.9
2015-Jul-24 04:34N 37°31' W 123°10'1514.6
2015-Jul-24 03:34N 37°39' W 122°54'1313.0
2015-Jul-24 02:33N 37°45' W 122°40'1110.7
2015-Jul-24 01:33N 37°50' W 122°27'10 9.6
2015-Jul-24 00:33N 37°43' W 122°20'0 0.3
2015-Jul-23 23:32N 37°42' W 122°20'0 0.1
2015-Jul-23 22:33N 37°42' W 122°20'0 0.0
2015-Jul-23 21:33N 37°42' W 122°20'4 3.7
2015-Jul-23 20:33N 37°46' W 122°22'1313.2
2015-Jul-23 19:33N 37°58' W 122°26'1312.9
2015-Jul-23 18:33N 38°03' W 122°11'2 0.1
2015-Jul-21 23:33N 38°02' W 122°09'8 8.3
2015-Jul-21 22:33N 38°03' W 122°19'10 9.8
2015-Jul-21 21:33N 37°55' W 122°27'1010.1
2015-Jul-21 20:33N 37°46' W 122°22'3 3.0
2015-Jul-21 19:31N 37°43' W 122°20'0 0.1
2015-Jul-21 18:34N 37°43' W 122°20'0 0.1
2015-Jul-21 17:31N 37°43' W 122°20'0 0.1
2015-Jul-21 16:31N 37°43' W 122°21'0 0.0
2015-Jul-21 15:31N 37°43' W 122°21'0 0.0
2015-Jul-21 14:34N 37°43' W 122°21'0 0.0
2015-Jul-21 13:34N 37°43' W 122°21'0 0.0
2015-Jul-21 12:31N 37°43' W 122°21'0 0.1
2015-Jul-21 11:34N 37°43' W 122°20'0 0.2
2015-Jul-21 10:34N 37°43' W 122°20'0 0.0
2015-Jul-21 09:31N 37°43' W 122°20'0 0.0
2015-Jul-21 08:34N 37°43' W 122°20'0 0.0
2015-Jul-21 07:31N 37°43' W 122°20'0 0.0
2015-Jul-21 06:31N 37°43' W 122°20'0 0.2
2015-Jul-21 05:31N 37°43' W 122°20'0 0.1
2015-Jul-21 04:31N 37°43' W 122°21'0 0.0
2015-Jul-21 03:31N 37°43' W 122°21'0 0.0
2015-Jul-21 02:31N 37°43' W 122°21'0 0.1
2015-Jul-21 01:33N 37°43' W 122°21'7 6.7
2015-Jul-21 00:34N 37°49' W 122°25'1110.7
2015-Jul-20 23:33N 37°46' W 122°38'9 8.9
2015-Jul-20 22:33N 37°40' W 122°47'1313.0
2015-Jul-20 21:33N 37°33' W 123°01'1110.8
2015-Jul-20 20:33N 37°22' W 123°02'1312.9
2015-Jul-20 19:33N 37°11' W 122°55'1212.3
2015-Jul-20 18:34N 36°60' W 122°49'1212.3
2015-Jul-20 17:33N 36°48' W 122°43'1312.5
2015-Jul-20 16:33N 36°37' W 122°37'  

Dump ship's entire track history